Time;durP1;ratioP1;P1;durP2;ratioP2;P2;SDS_P1;SDS_P2;PMS_P1;PMS_P2;Temp;Humidity;BMP_temperature;BMP_pressure;BME280_temperature;BME280_humidity;BME280_pressure;Samples;Min_cycle;Max_cycle;Signal;HPM_P1;HPM_P2
2021/12/13 00:01:06;;;;;;;21.13;9.73;;;;;;;;;;5072763;28;20039;-77
2021/12/13 00:03:52;;;;;;;18.45;9.88;;;;;;;;;;5074387;28;20120;-77
2021/12/13 00:06:27;;;;;;;26.33;10.80;;;;;;;;;;5072575;28;20020;-78
2021/12/13 00:08:55;;;;;;;22.00;10.27;;;;;;;;;;5039869;28;20359;-78
2021/12/13 00:11:23;;;;;;;17.45;9.35;;;;;;;;;;5072591;28;20039;-77
2021/12/13 00:14:20;;;;;;;15.10;8.68;;;;;;;;;;5058014;28;20419;-77
2021/12/13 00:16:48;;;;;;;18.42;9.50;;;;;;;;;;5065808;28;20140;-77
2021/12/13 00:19:20;;;;;;;24.55;10.55;;;;;;;;;;5076869;28;20036;-77
2021/12/13 00:21:56;;;;;;;22.38;10.05;;;;;;;;;;5077682;28;20039;-78
2021/12/13 00:24:25;;;;;;;22.42;9.85;;;;;;;;;;5061454;28;20032;-77
2021/12/13 00:26:53;;;;;;;17.88;9.45;;;;;;;;;;5076436;28;20039;-77
2021/12/13 00:29:22;;;;;;;21.13;9.40;;;;;;;;;;5076082;28;20426;-78
2021/12/13 00:32:12;;;;;;;18.85;9.63;;;;;;;;;;5078079;28;20036;-78
2021/12/13 00:34:39;;;;;;;18.77;9.70;;;;;;;;;;5077477;28;20410;-77
2021/12/13 00:37:15;;;;;;;23.77;10.65;;;;;;;;;;5078156;28;20036;-77
2021/12/13 00:40:25;;;;;;;23.48;10.40;;;;;;;;;;5076645;28;20029;-77
2021/12/13 00:43:05;;;;;;;26.30;10.13;;;;;;;;;;5075077;28;20430;-78
2021/12/13 00:45:32;;;;;;;15.55;8.27;;;;;;;;;;5074627;28;20413;-77
2021/12/13 00:48:01;;;;;;;19.75;8.82;;;;;;;;;;5076078;28;20035;-78
2021/12/13 00:50:43;;;;;;;14.52;7.90;;;;;;;;;;5059784;28;20165;-77
2021/12/13 00:53:09;;;;;;;15.43;7.63;;;;;;;;;;5076177;28;20035;-77
2021/12/13 00:55:35;;;;;;;15.13;8.30;;;;;;;;;;5043352;28;20037;-77
2021/12/13 00:58:03;;;;;;;15.43;7.43;;;;;;;;;;5042893;28;20081;-78
2021/12/13 01:00:45;;;;;;;13.68;8.10;;;;;;;;;;5076965;28;20047;-77
2021/12/13 01:03:17;;;;;;;15.20;7.18;;;;;;;;;;5077225;28;20063;-77
2021/12/13 01:06:04;;;;;;;14.88;8.20;;;;;;;;;;5059414;28;20082;-77
2021/12/13 01:09:06;;;;;;;15.68;8.07;;;;;;;;;;5077458;28;20049;-77
2021/12/13 01:11:43;;;;;;;14.10;7.22;;;;;;;;;;5080028;28;20096;-77
2021/12/13 01:14:27;;;;;;;18.85;8.20;;;;;;;;;;5084230;28;20035;-77
2021/12/13 01:19:58;;;;;;;16.23;7.75;;;;;;;;;;5085935;28;20029;-76
2021/12/13 01:22:46;;;;;;;16.35;6.95;;;;;;;;;;5081401;28;20104;-77
2021/12/13 01:25:48;;;;;;;16.13;8.38;;;;;;;;;;5078955;28;20067;-77
2021/12/13 01:28:32;;;;;;;18.05;8.70;;;;;;;;;;5077289;28;20481;-76
2021/12/13 01:31:12;;;;;;;14.60;7.40;;;;;;;;;;5076371;28;20030;-77
2021/12/13 01:33:42;;;;;;;13.65;7.88;;;;;;;;;;5078596;28;20080;-77
2021/12/13 01:36:09;;;;;;;;;;;;;;;;;;5060081;28;20358;-78
2021/12/13 01:38:41;;;;;;;10.23;5.57;;;;;;;;;;5076648;28;19944;-77
2021/12/13 01:41:10;;;;;;;10.18;5.55;;;;;;;;;;5075105;28;20133;-77
2021/12/13 01:43:38;;;;;;;11.77;6.03;;;;;;;;;;5076168;28;20496;-77
2021/12/13 01:46:04;;;;;;;10.95;5.68;;;;;;;;;;5076455;28;20123;-77
2021/12/13 01:48:35;;;;;;;9.95;5.45;;;;;;;;;;5058709;28;20111;-77
2021/12/13 01:51:08;;;;;;;10.63;5.63;;;;;;;;;;5076289;28;20114;-77
2021/12/13 01:53:40;;;;;;;9.40;5.60;;;;;;;;;;5060302;28;20107;-77
2021/12/13 01:56:23;;;;;;;11.30;5.95;;;;;;;;;;5079682;28;20111;-76
2021/12/13 01:58:49;;;;;;;10.80;5.40;;;;;;;;;;5079789;28;20375;-77
2021/12/13 02:01:20;;;;;;;9.75;5.45;;;;;;;;;;5082216;28;20025;-77
2021/12/13 02:04:07;;;;;;;11.48;5.30;;;;;;;;;;5084459;28;20032;-78
2021/12/13 02:06:35;;;;;;;10.07;5.72;;;;;;;;;;5060948;28;20044;-77
2021/12/13 02:09:08;;;;;;;7.93;4.93;;;;;;;;;;5078195;28;20028;-76
2021/12/13 02:11:34;;;;;;;11.40;6.32;;;;;;;;;;5063476;28;20088;-77
2021/12/13 02:14:20;;;;;;;10.20;5.85;;;;;;;;;;5079624;28;20071;-78
2021/12/13 02:17:10;;;;;;;11.13;6.18;;;;;;;;;;5081400;28;20067;-77
2021/12/13 02:19:46;;;;;;;10.48;5.60;;;;;;;;;;5081177;28;20024;-76
2021/12/13 02:22:24;;;;;;;10.23;5.90;;;;;;;;;;5063682;28;20060;-77
2021/12/13 02:24:50;;;;;;;10.52;5.55;;;;;;;;;;5080348;28;20616;-77
2021/12/13 02:27:19;;;;;;;11.27;6.03;;;;;;;;;;5078611;28;20033;-77
2021/12/13 02:29:45;;;;;;;11.52;5.93;;;;;;;;;;5074180;28;20058;-77
2021/12/13 02:32:10;;;;;;;12.70;6.50;;;;;;;;;;5041241;28;20032;-77
2021/12/13 02:34:37;;;;;;;11.13;6.50;;;;;;;;;;5074317;28;20028;-78
2021/12/13 02:37:03;;;;;;;12.38;6.60;;;;;;;;;;5073332;28;20040;-77
2021/12/13 02:39:32;;;;;;;11.35;6.53;;;;;;;;;;5075542;28;20039;-78
2021/12/13 02:41:58;;;;;;;12.10;6.68;;;;;;;;;;5091500;28;20032;-77
2021/12/13 02:44:26;;;;;;;10.02;6.38;;;;;;;;;;5073732;28;20033;-77
2021/12/13 02:46:54;;;;;;;14.50;6.53;;;;;;;;;;5074111;28;20371;-77
2021/12/13 02:49:20;;;;;;;12.70;6.78;;;;;;;;;;5057861;28;20029;-77
2021/12/13 02:51:52;;;;;;;12.10;6.68;;;;;;;;;;5074786;28;20086;-78
2021/12/13 02:54:21;;;;;;;11.82;6.97;;;;;;;;;;5074262;28;20031;-77
2021/12/13 02:56:59;;;;;;;12.10;6.43;;;;;;;;;;5074113;28;20032;-77
2021/12/13 02:59:26;;;;;;;10.98;5.97;;;;;;;;;;5073813;28;20066;-78
2021/12/13 03:02:12;;;;;;;12.75;6.60;;;;;;;;;;5056752;28;20524;-78
2021/12/13 03:04:38;;;;;;;21.00;8.45;;;;;;;;;;5074800;28;20069;-77
2021/12/13 03:07:07;;;;;;;21.83;8.85;;;;;;;;;;5056668;28;20080;-77
2021/12/13 03:09:33;;;;;;;14.93;7.60;;;;;;;;;;5073225;28;20379;-77
2021/12/13 03:11:59;;;;;;;14.85;7.43;;;;;;;;;;5075040;28;20357;-77
2021/12/13 03:14:27;;;;;;;12.88;6.88;;;;;;;;;;5057002;28;20036;-78
2021/12/13 03:17:01;;;;;;;12.77;6.80;;;;;;;;;;5056682;28;20052;-77
2021/12/13 03:19:38;;;;;;;15.23;7.18;;;;;;;;;;5057472;28;20082;-78
2021/12/13 03:22:25;;;;;;;12.05;6.75;;;;;;;;;;5073965;28;20024;-78
2021/12/13 03:25:18;;;;;;;17.48;8.50;;;;;;;;;;5074947;28;20068;-76
2021/12/13 03:28:06;;;;;;;16.13;8.05;;;;;;;;;;5074447;28;20115;-76
2021/12/13 03:30:56;;;;;;;14.27;7.50;;;;;;;;;;5073385;28;20036;-76
2021/12/13 03:33:30;;;;;;;15.53;7.50;;;;;;;;;;5059386;28;20493;-76
2021/12/13 03:35:56;;;;;;;11.85;7.05;;;;;;;;;;5074491;28;20033;-76
2021/12/13 03:38:34;;;;;;;13.80;7.22;;;;;;;;;;5074457;28;20186;-76
2021/12/13 03:41:09;;;;;;;19.70;9.52;;;;;;;;;;5073260;28;20664;-76
2021/12/13 03:43:41;;;;;;;17.70;8.95;;;;;;;;;;5074752;28;20028;-77
2021/12/13 03:46:07;;;;;;;16.48;9.57;;;;;;;;;;5074366;28;20439;-76
2021/12/13 03:48:33;;;;;;;21.92;10.32;;;;;;;;;;5072855;28;20422;-76
2021/12/13 03:51:05;;;;;;;18.38;9.50;;;;;;;;;;5074114;28;20064;-76
2021/12/13 03:53:31;;;;;;;18.50;10.35;;;;;;;;;;5056939;28;20033;-76
2021/12/13 03:56:04;;;;;;;16.88;8.82;;;;;;;;;;5073143;28;20094;-76
2021/12/13 03:58:43;;;;;;;19.77;9.57;;;;;;;;;;5073117;28;20102;-78
2021/12/13 04:01:21;;;;;;;18.75;9.23;;;;;;;;;;5073455;28;20038;-77
2021/12/13 04:03:50;;;;;;;18.13;8.93;;;;;;;;;;5072974;28;20064;-76
2021/12/13 04:06:16;;;;;;;14.65;7.93;;;;;;;;;;5073610;28;20032;-76
2021/12/13 04:08:48;;;;;;;13.95;6.88;;;;;;;;;;5074088;28;20397;-76
2021/12/13 04:11:13;;;;;;;12.73;6.00;;;;;;;;;;5057018;28;20114;-76
2021/12/13 04:13:47;;;;;;;12.18;6.30;;;;;;;;;;5073427;28;20087;-76
2021/12/13 04:16:46;;;;;;;9.43;5.65;;;;;;;;;;5074249;28;20028;-75
2021/12/13 04:19:13;;;;;;;8.10;4.72;;;;;;;;;;5073448;28;20036;-77
2021/12/13 04:21:49;;;;;;;9.15;5.47;;;;;;;;;;5073101;28;20041;-77
2021/12/13 04:24:37;;;;;;;9.57;5.20;;;;;;;;;;5074432;28;20052;-77
2021/12/13 04:27:15;;;;;;;8.10;4.88;;;;;;;;;;5074176;28;20038;-76
2021/12/13 04:29:41;;;;;;;7.30;4.80;;;;;;;;;;5074327;28;20033;-76
2021/12/13 04:32:25;;;;;;;10.15;4.68;;;;;;;;;;5072946;28;20033;-77
2021/12/13 04:34:55;;;;;;;14.95;6.15;;;;;;;;;;5073690;28;20047;-77
2021/12/13 04:37:23;;;;;;;12.00;6.32;;;;;;;;;;5072821;28;20028;-76
2021/12/13 04:39:55;;;;;;;14.38;7.35;;;;;;;;;;5055823;28;20352;-77
2021/12/13 04:42:21;;;;;;;13.15;7.32;;;;;;;;;;5072440;28;20043;-77
2021/12/13 04:45:05;;;;;;;13.32;7.25;;;;;;;;;;5055701;28;20060;-77
2021/12/13 04:47:55;;;;;;;14.38;6.68;;;;;;;;;;5072412;28;20032;-76
2021/12/13 04:50:24;;;;;;;17.57;8.83;;;;;;;;;;5073275;28;20466;-78
2021/12/13 04:52:50;;;;;;;18.00;7.85;;;;;;;;;;5055992;28;20028;-77
2021/12/13 04:55:22;;;;;;;17.05;8.35;;;;;;;;;;5072585;28;20128;-77
2021/12/13 04:57:49;;;;;;;14.18;7.32;;;;;;;;;;5056470;28;20519;-77
2021/12/13 05:00:16;;;;;;;15.98;7.68;;;;;;;;;;5057839;28;20038;-77
2021/12/13 05:02:46;;;;;;;17.70;7.43;;;;;;;;;;5076845;28;20028;-77
2021/12/13 05:05:12;;;;;;;14.45;7.47;;;;;;;;;;5059448;28;20416;-76
2021/12/13 05:07:38;;;;;;;14.30;8.00;;;;;;;;;;5076003;28;20044;-76
2021/12/13 05:10:04;;;;;;;14.98;7.95;;;;;;;;;;5092835;28;20417;-76
2021/12/13 05:12:30;;;;;;;19.13;7.35;;;;;;;;;;5091398;28;20024;-78
2021/12/13 05:15:07;;;;;;;14.82;7.47;;;;;;;;;;5077059;28;20090;-76
2021/12/13 05:17:44;;;;;;;15.20;7.32;;;;;;;;;;5091580;28;20040;-75
2021/12/13 05:20:18;;;;;;;15.07;7.07;;;;;;;;;;5076640;28;20063;-76
2021/12/13 05:22:57;;;;;;;13.32;7.25;;;;;;;;;;5076828;28;20516;-75
2021/12/13 05:25:44;;;;;;;13.13;7.38;;;;;;;;;;5076694;28;20043;-75
2021/12/13 05:28:20;;;;;;;17.15;7.75;;;;;;;;;;5076432;28;20166;-77
2021/12/13 05:31:01;;;;;;;13.40;6.55;;;;;;;;;;5092201;28;20082;-76
2021/12/13 05:33:27;;;;;;;;;;;;;;;;;;5075227;28;20040;-75
2021/12/13 05:35:55;;;;;;;15.13;6.88;;;;;;;;;;5076060;28;19908;-75
2021/12/13 05:38:42;;;;;;;13.70;6.97;;;;;;;;;;5091709;28;20034;-76
2021/12/13 05:41:24;;;;;;;15.55;7.32;;;;;;;;;;5076015;28;20017;-75
2021/12/13 05:43:53;;;;;;;12.48;6.97;;;;;;;;;;5075284;28;20024;-76
2021/12/13 05:46:37;;;;;;;13.00;6.85;;;;;;;;;;5060404;28;20021;-77
2021/12/13 05:49:06;;;;;;;11.55;7.13;;;;;;;;;;5062926;28;20013;-75
2021/12/13 05:51:38;;;;;;;15.52;7.82;;;;;;;;;;5091073;28;20037;-77
2021/12/13 05:54:09;;;;;;;12.10;5.85;;;;;;;;;;5079674;28;20215;-75
2021/12/13 05:56:41;;;;;;;12.05;6.97;;;;;;;;;;5081215;28;20024;-76
2021/12/13 05:59:20;;;;;;;14.70;7.10;;;;;;;;;;5082583;28;20029;-76
2021/12/13 06:02:16;;;;;;;15.90;7.45;;;;;;;;;;5080335;28;20036;-76
2021/12/13 06:05:15;;;;;;;12.35;7.38;;;;;;;;;;5078234;28;20026;-75
2021/12/13 06:07:41;;;;;;;17.25;7.80;;;;;;;;;;5095341;28;20048;-75
2021/12/13 06:10:08;;;;;;;16.52;8.65;;;;;;;;;;5079004;28;20111;-78
2021/12/13 06:12:56;;;;;;;23.27;9.88;;;;;;;;;;5079559;28;20055;-79
2021/12/13 06:15:27;;;;;;;24.70;9.88;;;;;;;;;;5101508;28;20037;-77
2021/12/13 06:18:16;;;;;;;25.95;10.73;;;;;;;;;;5078802;28;20024;-76
2021/12/13 06:21:03;;;;;;;28.35;11.40;;;;;;;;;;5083171;28;20051;-80
2021/12/13 06:23:31;;;;;;;23.48;9.95;;;;;;;;;;5077029;28;20191;-76
2021/12/13 06:26:01;;;;;;;27.77;12.80;;;;;;;;;;5073492;28;20032;-76
2021/12/13 06:28:30;;;;;;;26.23;10.93;;;;;;;;;;5071916;28;20029;-76
2021/12/13 06:31:03;;;;;;;26.30;11.60;;;;;;;;;;5076882;28;20041;-75
2021/12/13 06:33:31;;;;;;;24.63;11.80;;;;;;;;;;5076853;28;20066;-76
2021/12/13 06:36:01;;;;;;;24.10;11.60;;;;;;;;;;5090673;28;20032;-77
2021/12/13 06:38:52;;;;;;;32.78;14.50;;;;;;;;;;5057080;28;20127;-77
2021/12/13 06:41:40;;;;;;;29.92;13.95;;;;;;;;;;5057717;28;20025;-74
2021/12/13 06:44:16;;;;;;;33.40;14.98;;;;;;;;;;5078206;28;20044;-75
2021/12/13 06:47:17;;;;;;;31.20;13.80;;;;;;;;;;5077730;28;20368;-74
2021/12/13 06:49:54;;;;;;;39.92;16.33;;;;;;;;;;5079656;28;20463;-75
2021/12/13 06:52:34;;;;;;;43.13;15.52;;;;;;;;;;5058382;28;20029;-76
2021/12/13 06:55:04;;;;;;;37.00;15.67;;;;;;;;;;5073581;28;20060;-81
2021/12/13 06:57:35;;;;;;;41.63;17.90;;;;;;;;;;5070639;28;20029;-75
2021/12/13 07:00:11;;;;;;;34.58;15.95;;;;;;;;;;5091259;28;20028;-77
2021/12/13 07:02:45;;;;;;;34.03;14.45;;;;;;;;;;5074467;28;20052;-76
2021/12/13 07:05:36;;;;;;;28.95;13.82;;;;;;;;;;5076215;28;20034;-76
2021/12/13 07:08:03;;;;;;;34.38;14.25;;;;;;;;;;5075282;28;20070;-76
2021/12/13 07:10:45;;;;;;;28.48;11.80;;;;;;;;;;5088333;28;20469;-79
2021/12/13 07:13:22;;;;;;;23.50;11.27;;;;;;;;;;5083033;28;20025;-78
2021/12/13 07:16:06;;;;;;;23.13;10.05;;;;;;;;;;5088119;28;20052;-77
2021/12/13 07:18:48;;;;;;;18.83;9.10;;;;;;;;;;5070174;28;20171;-76
2021/12/13 07:21:28;;;;;;;20.42;8.75;;;;;;;;;;5086003;28;20170;-77
2021/12/13 07:24:09;;;;;;;21.75;9.95;;;;;;;;;;5071873;28;20123;-75
2021/12/13 07:27:04;;;;;;;29.48;9.30;;;;;;;;;;5095556;28;20032;-76
2021/12/13 07:29:31;;;;;;;24.77;8.98;;;;;;;;;;5079561;28;20020;-75
2021/12/13 07:32:17;;;;;;;25.70;10.07;;;;;;;;;;5077301;28;20028;-77
2021/12/13 07:35:07;;;;;;;23.95;9.43;;;;;;;;;;5079899;28;20025;-77
2021/12/13 07:37:47;;;;;;;26.52;9.40;;;;;;;;;;5078921;28;20028;-78
2021/12/13 07:40:20;;;;;;;23.05;9.38;;;;;;;;;;5077256;28;20912;-77
2021/12/13 07:43:09;;;;;;;23.60;9.90;;;;;;;;;;5079257;28;20024;-75
2021/12/13 07:46:07;;;;;;;36.33;9.63;;;;;;;;;;5074847;28;20043;-76
2021/12/13 07:48:40;;;;;;;20.08;8.23;;;;;;;;;;5056222;28;20123;-75
2021/12/13 07:51:23;;;;;;;18.38;8.10;;;;;;;;;;5071904;28;20041;-75
2021/12/13 07:53:58;;;;;;;23.40;9.95;;;;;;;;;;5082387;28;20044;-78
2021/12/13 07:56:26;;;;;;;31.38;12.35;;;;;;;;;;5082931;28;20036;-81
2021/12/13 07:58:58;;;;;;;32.50;13.52;;;;;;;;;;5065497;28;20435;-78
2021/12/13 08:01:25;;;;;;;36.22;14.60;;;;;;;;;;5081232;28;20049;-76
2021/12/13 08:04:07;;;;;;;36.03;14.43;;;;;;;;;;5082202;28;20127;-77
2021/12/13 08:06:37;;;;;;;26.63;11.98;;;;;;;;;;5098194;28;20410;-76
2021/12/13 08:09:04;;;;;;;30.20;12.95;;;;;;;;;;5073501;28;20029;-78
2021/12/13 08:11:38;;;;;;;25.73;11.05;;;;;;;;;;5090140;28;20039;-77
2021/12/13 08:14:04;;;;;;;22.63;9.73;;;;;;;;;;5081306;28;20032;-79
2021/12/13 08:16:37;;;;;;;21.60;9.15;;;;;;;;;;5061487;28;20037;-78
2021/12/13 08:19:13;;;;;;;18.42;8.50;;;;;;;;;;5076801;28;20090;-79
2021/12/13 08:21:43;;;;;;;28.25;10.05;;;;;;;;;;5076757;28;20040;-78
2021/12/13 08:24:16;;;;;;;25.10;10.10;;;;;;;;;;5060384;28;20029;-79
2021/12/13 08:26:42;;;;;;;26.45;10.35;;;;;;;;;;5080943;28;20033;-75
2021/12/13 08:29:10;;;;;;;28.67;10.20;;;;;;;;;;5066578;28;20593;-77
2021/12/13 08:31:47;;;;;;;52.95;18.13;;;;;;;;;;5064183;28;20040;-78
2021/12/13 08:34:22;;;;;;;40.83;13.70;;;;;;;;;;5062613;28;20056;-75
2021/12/13 08:36:48;;;;;;;62.42;21.73;;;;;;;;;;5068116;28;20055;-77
2021/12/13 08:39:32;;;;;;;31.88;12.70;;;;;;;;;;5069028;28;20029;-79
2021/12/13 08:42:10;;;;;;;36.88;15.95;;;;;;;;;;5065468;28;20033;-79
2021/12/13 08:44:43;;;;;;;29.48;12.23;;;;;;;;;;5067571;28;20609;-79
2021/12/13 08:47:45;;;;;;;34.38;11.82;;;;;;;;;;5085667;28;20029;-80
2021/12/13 08:50:33;;;;;;;20.42;7.85;;;;;;;;;;5068815;28;20044;-80
2021/12/13 08:53:17;;;;;;;18.50;7.35;;;;;;;;;;5069130;28;20100;-81
2021/12/13 08:55:52;;;;;;;13.98;7.28;;;;;;;;;;5084029;28;20140;-79
2021/12/13 08:58:19;;;;;;;22.65;9.27;;;;;;;;;;5087380;28;20028;-82
2021/12/13 09:00:49;;;;;;;19.40;8.15;;;;;;;;;;5082904;28;20456;-80
2021/12/13 09:03:40;;;;;;;14.50;7.60;;;;;;;;;;5082152;28;20063;-81
2021/12/13 09:06:17;;;;;;;11.57;6.43;;;;;;;;;;5066437;28;20077;-79
2021/12/13 09:08:44;;;;;;;14.63;6.93;;;;;;;;;;5066501;28;20036;-82
2021/12/13 09:11:43;;;;;;;18.65;9.23;;;;;;;;;;5091493;28;20098;-82
2021/12/13 09:14:36;;;;;;;20.27;9.10;;;;;;;;;;5070577;28;20127;-82
2021/12/13 09:17:11;;;;;;;20.15;8.52;;;;;;;;;;5086995;28;20032;-81
2021/12/13 09:19:49;;;;;;;18.25;9.15;;;;;;;;;;5086886;28;20544;-81
2021/12/13 09:22:21;;;;;;;22.02;9.63;;;;;;;;;;5085865;28;20048;-78
2021/12/13 09:24:46;;;;;;;24.75;10.10;;;;;;;;;;5078263;28;20344;-78
2021/12/13 09:27:12;;;;;;;17.13;8.75;;;;;;;;;;5075077;28;20048;-80
2021/12/13 09:30:00;;;;;;;16.55;7.88;;;;;;;;;;5079507;28;20017;-80
2021/12/13 09:32:53;;;;;;;16.67;7.30;;;;;;;;;;5067306;28;20481;-79
2021/12/13 09:35:21;;;;;;;18.23;8.93;;;;;;;;;;5076149;28;20035;-82
2021/12/13 09:37:48;;;;;;;17.70;7.88;;;;;;;;;;5086815;28;20029;-79
2021/12/13 09:40:15;;;;;;;21.40;8.38;;;;;;;;;;5085219;28;20054;-81
2021/12/13 09:42:51;;;;;;;23.50;9.55;;;;;;;;;;5088890;28;20059;-85
2021/12/13 09:46:04;;;;;;;;;;;;;;;;;;;;;
2021/12/13 09:48:35;;;;;;;19.10;8.65;;;;;;;;;;5081752;28;20187;-80
2021/12/13 09:51:05;;;;;;;21.33;10.50;;;;;;;;;;5085653;28;20065;-79
2021/12/13 09:53:33;;;;;;;16.25;8.32;;;;;;;;;;5084720;28;20060;-81
2021/12/13 09:56:01;;;;;;;18.45;8.35;;;;;;;;;;5085199;28;20021;-80
2021/12/13 09:58:33;;;;;;;18.17;8.48;;;;;;;;;;5067266;28;20028;-81
2021/12/13 10:01:08;;;;;;;19.73;9.90;;;;;;;;;;5066845;28;20032;-79
2021/12/13 10:03:53;;;;;;;20.30;9.82;;;;;;;;;;5066432;28;20118;-79
2021/12/13 10:06:26;;;;;;;19.95;9.85;;;;;;;;;;5082854;28;20032;-81
2021/12/13 10:09:04;;;;;;;19.67;10.13;;;;;;;;;;5084389;28;20029;-79
2021/12/13 10:11:40;;;;;;;21.58;10.32;;;;;;;;;;5083301;28;20036;-78
2021/12/13 10:14:09;;;;;;;20.38;9.88;;;;;;;;;;5083797;28;20031;-82
2021/12/13 10:16:37;;;;;;;23.70;11.07;;;;;;;;;;5049174;28;20042;-81
2021/12/13 10:19:08;;;;;;;26.60;11.73;;;;;;;;;;5082771;28;20436;-79
2021/12/13 10:21:36;;;;;;;23.67;11.27;;;;;;;;;;5081945;28;20138;-81
2021/12/13 10:24:31;;;;;;;19.92;8.23;;;;;;;;;;5084914;28;20032;-79
2021/12/13 10:27:19;;;;;;;17.55;8.02;;;;;;;;;;5074377;28;20040;-79
2021/12/13 10:30:04;;;;;;;23.92;10.20;;;;;;;;;;5075247;28;20025;-80
2021/12/13 10:32:33;;;;;;;15.48;7.57;;;;;;;;;;5080846;28;20356;-77
2021/12/13 10:35:04;;;;;;;16.88;8.32;;;;;;;;;;5064793;28;20040;-79
2021/12/13 10:38:07;;;;;;;12.60;7.30;;;;;;;;;;5091550;28;20029;-77
2021/12/13 10:40:48;;;;;;;25.83;12.95;;;;;;;;;;5095385;28;20067;-80
2021/12/13 10:43:26;;;;;;;22.83;11.80;;;;;;;;;;5068724;28;20102;-77
2021/12/13 10:46:07;;;;;;;30.02;16.88;;;;;;;;;;5083198;28;20029;-79
2021/12/13 10:48:34;;;;;;;37.42;16.92;;;;;;;;;;5089809;28;20146;-81
2021/12/13 10:51:08;;;;;;;22.27;10.88;;;;;;;;;;5077049;28;20032;-78
2021/12/13 10:53:34;;;;;;;20.38;9.88;;;;;;;;;;5071135;28;20033;-79
2021/12/13 10:56:03;;;;;;;24.10;11.77;;;;;;;;;;5070063;28;20070;-78
2021/12/13 10:58:39;;;;;;;24.73;12.38;;;;;;;;;;5091782;28;20056;-80
2021/12/13 11:01:08;;;;;;;24.88;11.10;;;;;;;;;;5063262;28;20100;-81
2021/12/13 11:03:34;;;;;;;22.38;10.43;;;;;;;;;;5074213;28;20117;-80
2021/12/13 11:06:02;;;;;;;27.15;11.93;;;;;;;;;;5076217;28;20459;-77
2021/12/13 11:08:44;;;;;;;23.35;12.25;;;;;;;;;;5074540;28;20044;-81
2021/12/13 11:11:19;;;;;;;18.75;9.05;;;;;;;;;;5086107;28;20051;-79
2021/12/13 11:13:49;;;;;;;22.05;9.75;;;;;;;;;;5092743;28;20712;-78
2021/12/13 11:16:20;;;;;;;27.10;10.45;;;;;;;;;;5077178;28;20097;-79
2021/12/13 11:18:46;;;;;;;29.35;11.98;;;;;;;;;;5081599;28;20052;-80
2021/12/13 11:21:35;;;;;;;26.83;12.43;;;;;;;;;;5094234;28;20039;-77
2021/12/13 11:24:03;;;;;;;25.70;11.85;;;;;;;;;;5048363;28;20036;-77
2021/12/13 11:26:31;;;;;;;21.92;10.93;;;;;;;;;;5075127;28;20060;-79
2021/12/13 11:28:58;;;;;;;23.58;12.02;;;;;;;;;;5063262;28;20032;-78
2021/12/13 11:31:30;;;;;;;23.98;10.93;;;;;;;;;;5078284;28;20024;-81
2021/12/13 11:34:02;;;;;;;20.70;9.45;;;;;;;;;;5086816;28;20072;-80
2021/12/13 11:37:08;;;;;;;23.15;10.68;;;;;;;;;;5074766;28;20033;-81
2021/12/13 11:40:09;;;;;;;24.08;11.25;;;;;;;;;;5077169;28;20371;-83
2021/12/13 11:43:03;;;;;;;22.30;10.63;;;;;;;;;;5066486;28;20394;-79
2021/12/13 11:46:11;;;;;;;25.90;11.57;;;;;;;;;;5080189;28;20117;-79
2021/12/13 11:49:05;;;;;;;23.10;9.73;;;;;;;;;;5079238;28;20092;-78
2021/12/13 11:52:15;;;;;;;27.10;12.00;;;;;;;;;;5083026;28;20040;-79
2021/12/13 11:55:02;;;;;;;24.38;9.38;;;;;;;;;;5099669;28;20032;-83
2021/12/13 11:58:01;;;;;;;21.13;10.25;;;;;;;;;;5079649;28;20071;-82
2021/12/13 12:00:54;;;;;;;23.52;10.43;;;;;;;;;;5062747;28;20107;-84
2021/12/13 12:03:54;;;;;;;22.55;9.02;;;;;;;;;;5060370;28;20365;-83
2021/12/13 12:06:50;;;;;;;18.38;7.90;;;;;;;;;;5059511;28;20037;-83
2021/12/13 12:09:27;;;;;;;20.40;7.93;;;;;;;;;;5064314;28;20033;-80
2021/12/13 12:12:00;;;;;;;20.35;8.38;;;;;;;;;;5066149;28;20406;-81
2021/12/13 12:14:29;;;;;;;18.55;8.77;;;;;;;;;;5060734;28;20044;-82
2021/12/13 12:16:56;;;;;;;26.92;9.25;;;;;;;;;;5062756;28;20118;-80
2021/12/13 12:19:30;;;;;;;19.88;9.10;;;;;;;;;;5062434;28;20096;-81
2021/12/13 12:22:16;;;;;;;18.92;10.10;;;;;;;;;;5063948;28;20040;-83
2021/12/13 12:24:43;;;;;;;26.02;10.60;;;;;;;;;;5065127;28;20029;-81
2021/12/13 12:27:15;;;;;;;17.77;8.85;;;;;;;;;;5078584;28;20464;-84
2021/12/13 12:29:49;;;;;;;16.33;8.57;;;;;;;;;;5068611;28;20021;-82
2021/12/13 12:32:22;;;;;;;22.25;10.20;;;;;;;;;;5083261;28;20033;-82
2021/12/13 12:35:11;;;;;;;51.10;22.63;;;;;;;;;;5065505;28;20104;-76
2021/12/13 12:37:54;;;;;;;27.80;13.10;;;;;;;;;;5066357;28;20098;-78
2021/12/13 12:40:54;;;;;;;26.45;12.77;;;;;;;;;;5065910;28;20067;-82
2021/12/13 12:43:22;;;;;;;33.45;14.65;;;;;;;;;;5053300;28;20060;-80
2021/12/13 12:45:53;;;;;;;30.08;13.32;;;;;;;;;;5066100;28;20444;-82
2021/12/13 12:48:26;;;;;;;;;;;;;;;;;;5082153;28;20062;-79
2021/12/13 12:51:02;;;;;;;27.90;10.57;;;;;;;;;;5082031;28;19917;-81
2021/12/13 12:53:35;;;;;;;24.33;10.65;;;;;;;;;;5066159;28;20483;-81
2021/12/13 12:56:08;;;;;;;25.00;11.48;;;;;;;;;;5063297;28;20032;-77
2021/12/13 12:58:39;;;;;;;34.28;14.50;;;;;;;;;;5062763;28;20029;-76
2021/12/13 13:01:27;;;;;;;36.35;14.23;;;;;;;;;;5079359;28;20029;-76
2021/12/13 13:03:54;;;;;;;73.63;24.35;;;;;;;;;;5062606;28;20048;-77
2021/12/13 13:06:22;;;;;;;44.75;17.85;;;;;;;;;;5079419;28;20113;-76
2021/12/13 13:08:50;;;;;;;40.65;15.48;;;;;;;;;;5081035;28;20041;-76
2021/12/13 13:11:30;;;;;;;29.77;12.75;;;;;;;;;;5063870;28;20037;-76
2021/12/13 13:14:27;;;;;;;33.28;14.05;;;;;;;;;;5061791;28;20123;-77
2021/12/13 13:17:01;;;;;;;46.35;16.67;;;;;;;;;;5062963;28;20009;-76
2021/12/13 13:19:36;;;;;;;42.25;17.80;;;;;;;;;;5063595;28;20029;-83
2021/12/13 13:22:07;;;;;;;43.83;19.02;;;;;;;;;;5047395;28;20056;-82
2021/12/13 13:24:38;;;;;;;30.52;12.82;;;;;;;;;;5065429;28;20021;-80
2021/12/13 13:27:04;;;;;;;33.13;13.15;;;;;;;;;;5064097;28;20048;-81
2021/12/13 13:29:30;;;;;;;38.03;13.30;;;;;;;;;;5048389;28;20024;-82
2021/12/13 13:31:59;;;;;;;37.17;15.48;;;;;;;;;;5046314;28;20048;-82
2021/12/13 13:34:34;;;;;;;31.85;13.73;;;;;;;;;;5048835;28;20368;-82
2021/12/13 13:37:04;;;;;;;42.00;15.02;;;;;;;;;;5064098;28;20036;-82
2021/12/13 13:39:34;;;;;;;26.35;11.93;;;;;;;;;;5046537;28;20033;-81
2021/12/13 13:42:17;;;;;;;25.25;8.73;;;;;;;;;;5062931;28;20048;-81
2021/12/13 13:45:08;;;;;;;27.73;11.65;;;;;;;;;;5063892;28;20035;-81
2021/12/13 13:47:39;;;;;;;30.58;13.32;;;;;;;;;;5065608;28;20029;-82
2021/12/13 13:50:33;;;;;;;39.97;15.48;;;;;;;;;;5048638;28;20027;-81
2021/12/13 13:53:12;;;;;;;26.80;12.05;;;;;;;;;;5065199;28;20029;-82
2021/12/13 13:55:59;;;;;;;24.05;9.63;;;;;;;;;;5080183;28;20043;-82
2021/12/13 13:58:29;;;;;;;30.27;11.90;;;;;;;;;;5054978;28;20100;-81
2021/12/13 14:01:05;;;;;;;28.90;12.55;;;;;;;;;;5054827;28;20490;-81
2021/12/13 14:03:44;;;;;;;33.25;15.00;;;;;;;;;;5055326;28;20029;-82
2021/12/13 14:06:11;;;;;;;34.30;12.73;;;;;;;;;;5054697;28;20025;-81
2021/12/13 14:08:37;;;;;;;24.88;10.88;;;;;;;;;;5054882;28;20056;-82
2021/12/13 14:11:04;;;;;;;29.35;13.15;;;;;;;;;;5054891;28;20036;-82
2021/12/13 14:13:35;;;;;;;41.53;17.27;;;;;;;;;;5055016;28;20031;-82
2021/12/13 14:16:28;;;;;;;36.42;14.52;;;;;;;;;;5057043;28;20039;-81
2021/12/13 14:18:56;;;;;;;25.70;12.23;;;;;;;;;;5058153;28;20044;-82
2021/12/13 14:21:25;;;;;;;38.20;15.00;;;;;;;;;;5038236;28;20033;-82
2021/12/13 14:23:51;;;;;;;47.33;21.65;;;;;;;;;;5055780;28;20032;-81
2021/12/13 14:26:28;;;;;;;46.15;17.30;;;;;;;;;;5037800;28;20479;-83
2021/12/13 14:29:02;;;;;;;36.28;14.80;;;;;;;;;;5038706;28;20059;-81
2021/12/13 14:31:31;;;;;;;26.42;11.82;;;;;;;;;;5056986;28;20090;-81
2021/12/13 14:33:58;;;;;;;22.67;11.43;;;;;;;;;;5055874;28;20040;-81
2021/12/13 14:36:25;;;;;;;27.50;11.85;;;;;;;;;;5054379;28;20029;-81
2021/12/13 14:38:55;;;;;;;24.48;10.90;;;;;;;;;;5056562;28;20448;-82
2021/12/13 14:41:24;;;;;;;20.65;10.40;;;;;;;;;;5055620;28;20089;-77
2021/12/13 14:43:55;;;;;;;28.52;13.00;;;;;;;;;;5053994;28;20037;-78
2021/12/13 14:46:24;;;;;;;33.03;14.45;;;;;;;;;;5055786;28;20055;-79
2021/12/13 14:48:49;;;;;;;37.97;17.63;;;;;;;;;;5071179;28;20032;-76
2021/12/13 14:51:16;;;;;;;37.42;16.15;;;;;;;;;;5093205;28;20029;-77
2021/12/13 14:53:43;;;;;;;37.95;14.93;;;;;;;;;;5074941;28;20348;-79
2021/12/13 14:56:14;;;;;;;32.13;16.10;;;;;;;;;;5073881;28;20036;-82
2021/12/13 14:58:54;;;;;;;25.70;12.35;;;;;;;;;;5094274;28;20036;-80
2021/12/13 15:01:28;;;;;;;29.90;12.98;;;;;;;;;;5083123;28;20039;-78
2021/12/13 15:03:58;;;;;;;25.92;12.63;;;;;;;;;;5093877;28;20071;-81
2021/12/13 15:06:24;;;;;;;33.80;15.15;;;;;;;;;;5080296;28;20028;-82
2021/12/13 15:08:55;;;;;;;32.10;14.55;;;;;;;;;;5095115;28;20062;-82
2021/12/13 15:11:31;;;;;;;38.38;16.27;;;;;;;;;;5097064;28;20348;-81
2021/12/13 15:14:06;;;;;;;48.22;18.40;;;;;;;;;;5074758;28;20032;-82
2021/12/13 15:16:36;;;;;;;35.90;13.65;;;;;;;;;;5090014;28;20076;-80
2021/12/13 15:19:22;;;;;;;27.30;11.60;;;;;;;;;;5073592;28;20071;-79